コモドロリバダビア の空港の天気 - METARとTAF

Comodoro Rivadavia Aerodrome ( SAVC / CRD ) - アルゼンチン チュブ州コモドロリバダビア
飛行場実況気象(Metar)
観測時間04/21 12:00 ART (04/21 15:00 UTC)
風向・風速静穏 0m/s
視程10km以上
天気現象
なし
気温18℃
湿度45%
気圧1020hPa
METARSAVC 211500Z 00000KT CAVOK 18/06 Q1020
過去の天気等 Google飛行場航空写真 Wunderground天気予報

過去48時間のMETAR

飛行場予報(TAF)
発表時間: 4/21 08:00 ART (4/21 11:00 UTC)
予報対象時間: 21日9時 ART ~ 22日9時 ART
風向・風速不定 4m/s
視程10km以上
なし
21日10時 ART ~ 21日12時 ART に徐々に
風向・風速西 5m/s
21日14時 ART ~ 21日16時 ART に徐々に
風向・風速北東 5m/s
21日21時 ART ~ 21日23時 ART に徐々に
風向・風速西北西 9m/s
TAF SAVC 211100Z 2112/2212 VRB07KT CAVOK TX22/2119Z TN11/2112
BECMG 2113/2115 27010KT
BECMG 2117/2119 05010KT
BECMG 2200/2202 30017KT